Time;durP1;ratioP1;P1;durP2;ratioP2;P2;SDS_P1;SDS_P2;PMS_P1;PMS_P2;Temp;Humidity;BMP_temperature;BMP_pressure;BME280_temperature;BME280_humidity;BME280_pressure;Samples;Min_cycle;Max_cycle;Signal;HPM_P1;HPM_P2
2023/12/17 00:01:14;;;;;;;2.65;1.10;;;9.90;99.90;;;;;;5100948;27;20077;-71
2023/12/17 00:03:39;;;;;;;3.72;1.17;;;9.90;99.90;;;;;;5127329;27;20031;-71
2023/12/17 00:06:05;;;;;;;3.95;1.55;;;9.90;99.90;;;;;;5123611;27;20093;-71
2023/12/17 00:08:31;;;;;;;2.65;1.15;;;9.90;99.90;;;;;;5119534;27;20121;-71
2023/12/17 00:10:58;;;;;;;5.88;1.65;;;9.90;99.90;;;;;;5132402;27;20039;-71
2023/12/17 00:13:24;;;;;;;1.55;1.05;;;9.90;99.90;;;;;;5117286;27;20468;-71
2023/12/17 00:15:50;;;;;;;3.85;1.25;;;9.90;99.90;;;;;;5114719;27;20034;-71
2023/12/17 00:18:16;;;;;;;3.35;1.33;;;9.90;99.90;;;;;;5111711;27;20089;-71
2023/12/17 00:20:42;;;;;;;5.38;1.48;;;9.90;99.90;;;;;;5102428;27;20500;-71
2023/12/17 00:23:08;;;;;;;3.10;1.35;;;9.80;99.90;;;;;;5110762;27;20111;-71
2023/12/17 00:25:34;;;;;;;2.40;0.93;;;9.90;99.90;;;;;;5116895;27;20035;-71
2023/12/17 00:27:59;;;;;;;2.25;0.88;;;9.90;99.90;;;;;;5121128;27;20285;-71
2023/12/17 00:30:25;;;;;;;1.95;1.13;;;9.80;99.90;;;;;;5156777;27;20041;-71
2023/12/17 00:32:51;;;;;;;3.53;1.45;;;9.90;99.90;;;;;;5157170;27;20039;-71
2023/12/17 00:35:18;;;;;;;2.97;1.08;;;9.90;99.90;;;;;;5112083;27;20043;-71
2023/12/17 00:37:43;;;;;;;3.20;1.20;;;9.90;99.90;;;;;;5117768;27;20099;-71
2023/12/17 00:40:09;;;;;;;1.55;1.00;;;9.90;99.90;;;;;;5123224;27;20520;-71
2023/12/17 00:42:35;;;;;;;2.10;1.00;;;9.90;99.90;;;;;;5101712;27;20107;-71
2023/12/17 00:45:01;;;;;;;10.27;1.40;;;9.80;99.90;;;;;;5139982;27;20035;-71
2023/12/17 00:47:27;;;;;;;2.30;1.00;;;9.90;99.90;;;;;;5115587;27;20037;-71
2023/12/17 00:49:53;;;;;;;3.17;1.10;;;9.90;99.90;;;;;;5131573;27;20046;-71
2023/12/17 00:52:22;;;;;;;2.63;1.08;;;9.90;99.90;;;;;;5131541;27;20054;-72
2023/12/17 00:54:51;;;;;;;2.25;1.42;;;9.90;99.90;;;;;;5149315;27;20041;-71
2023/12/17 00:57:17;;;;;;;2.40;0.77;;;9.90;99.90;;;;;;5135080;27;20502;-71
2023/12/17 00:59:43;;;;;;;3.55;0.93;;;9.90;99.90;;;;;;5123723;27;20998;-71
2023/12/17 01:02:09;;;;;;;1.42;0.95;;;9.90;99.90;;;;;;5123322;27;20026;-71
2023/12/17 01:04:34;;;;;;;2.17;1.02;;;9.90;99.90;;;;;;5105611;27;20030;-71
2023/12/17 01:07:00;;;;;;;2.72;1.00;;;9.90;99.90;;;;;;5123119;27;20047;-71
2023/12/17 01:09:25;;;;;;;2.72;1.02;;;9.90;99.90;;;;;;5145021;27;20404;-71
2023/12/17 01:11:51;;;;;;;3.20;1.00;;;9.90;99.90;;;;;;5159180;27;20043;-72
2023/12/17 01:14:17;;;;;;;6.93;1.42;;;9.90;99.90;;;;;;5156939;27;20031;-72
2023/12/17 01:16:42;;;;;;;2.65;1.08;;;9.90;99.90;;;;;;5124814;27;20035;-71
2023/12/17 01:19:08;;;;;;;2.25;1.15;;;9.90;99.90;;;;;;5115709;27;20096;-71
2023/12/17 01:21:34;;;;;;;3.88;1.10;;;9.90;99.90;;;;;;5107596;27;20035;-71
2023/12/17 01:23:59;;;;;;;2.95;0.85;;;9.90;99.90;;;;;;5089276;27;20070;-71
2023/12/17 01:26:29;;;;;;;2.50;1.10;;;9.90;99.90;;;;;;5139278;27;20039;-71
2023/12/17 01:28:57;;;;;;;2.70;0.75;;;9.90;99.90;;;;;;5098598;27;20032;-71
2023/12/17 01:31:23;;;;;;;3.53;1.20;;;9.90;99.90;;;;;;5151983;27;20040;-71
2023/12/17 01:33:49;;;;;;;2.05;0.70;;;9.90;99.90;;;;;;5120616;27;20404;-71
2023/12/17 01:36:14;;;;;;;2.08;0.60;;;9.90;99.90;;;;;;5130919;27;20034;-71
2023/12/17 01:38:40;;;;;;;3.50;1.38;;;9.90;99.90;;;;;;5084349;27;20070;-71
2023/12/17 01:41:08;;;;;;;3.88;1.23;;;9.90;99.90;;;;;;5113808;27;20399;-72
2023/12/17 01:43:34;;;;;;;1.65;0.68;;;9.90;99.90;;;;;;5119951;27;20120;-71
2023/12/17 01:46:00;;;;;;;3.35;1.00;;;9.90;99.90;;;;;;5113773;27;20116;-71
2023/12/17 01:48:26;;;;;;;3.65;1.05;;;9.90;99.90;;;;;;5109432;27;20239;-71
2023/12/17 01:50:54;;;;;;;3.05;1.20;;;9.90;99.90;;;;;;5111035;27;20127;-71
2023/12/17 01:53:21;;;;;;;2.63;0.95;;;9.90;99.90;;;;;;5120557;27;20049;-71
2023/12/17 01:55:49;;;;;;;3.58;0.98;;;9.90;99.90;;;;;;5100274;27;20039;-71
2023/12/17 01:58:16;;;;;;;6.78;1.30;;;9.90;99.90;;;;;;5118107;27;20043;-71
2023/12/17 02:00:42;;;;;;;1.83;0.80;;;9.90;99.90;;;;;;5115933;27;20030;-71
2023/12/17 02:03:07;;;;;;;2.33;1.50;;;9.90;99.90;;;;;;5094455;27;20036;-71
2023/12/17 02:05:33;;;;;;;2.90;1.40;;;9.90;99.90;;;;;;5106558;27;20468;-72
2023/12/17 02:08:00;;;;;;;2.95;1.00;;;9.90;99.90;;;;;;5110572;27;20078;-71
2023/12/17 02:10:26;;;;;;;1.75;1.08;;;9.90;99.90;;;;;;5116207;27;20090;-71
2023/12/17 02:12:52;;;;;;;4.03;1.33;;;10.00;99.90;;;;;;5113397;27;20039;-71
2023/12/17 02:15:18;;;;;;;5.20;2.03;;;9.90;99.90;;;;;;5102738;27;20591;-71
2023/12/17 02:17:43;;;;;;;2.13;0.88;;;10.00;99.90;;;;;;5117471;27;20038;-71
2023/12/17 02:20:09;;;;;;;1.70;1.00;;;9.90;99.90;;;;;;5146466;27;20070;-71
2023/12/17 02:22:36;;;;;;;1.50;0.70;;;9.90;99.90;;;;;;5091303;27;20026;-71
2023/12/17 02:25:03;;;;;;;3.83;1.48;;;10.00;99.90;;;;;;5098930;27;20047;-71
2023/12/17 02:27:28;;;;;;;2.38;1.10;;;9.90;99.90;;;;;;5113155;27;20049;-71
2023/12/17 02:29:55;;;;;;;3.08;1.17;;;10.00;99.90;;;;;;5118689;27;20553;-71
2023/12/17 02:32:22;;;;;;;3.88;0.82;;;9.90;99.90;;;;;;5144617;27;20048;-71
2023/12/17 02:34:48;;;;;;;1.30;0.82;;;10.00;99.90;;;;;;5114029;27;20039;-71
2023/12/17 02:37:15;;;;;;;2.95;1.48;;;10.00;99.90;;;;;;5107884;27;20043;-71
2023/12/17 02:39:41;;;;;;;3.03;1.15;;;10.00;99.90;;;;;;5106058;27;20031;-71
2023/12/17 02:42:06;;;;;;;3.03;1.27;;;10.00;99.90;;;;;;5149979;27;20090;-71
2023/12/17 02:44:32;;;;;;;2.88;1.40;;;10.00;99.90;;;;;;5118760;27;20805;-71
2023/12/17 02:46:58;;;;;;;2.10;1.00;;;10.00;99.90;;;;;;5116214;27;20037;-71
2023/12/17 02:49:25;;;;;;;3.17;1.30;;;10.00;99.90;;;;;;5108180;27;20039;-71
2023/12/17 02:51:50;;;;;;;3.47;1.17;;;10.00;99.90;;;;;;5099459;27;20510;-71
2023/12/17 02:54:20;;;;;;;2.17;1.35;;;10.00;99.90;;;;;;5095283;27;20047;-71
2023/12/17 02:56:46;;;;;;;5.05;1.90;;;10.00;99.90;;;;;;5137661;27;20087;-71
2023/12/17 02:59:13;;;;;;;4.13;1.27;;;10.00;99.90;;;;;;5117764;27;20584;-71
2023/12/17 03:01:45;;;;;;;2.53;1.35;;;10.00;99.90;;;;;;5118290;27;20031;-75
2023/12/17 03:04:11;;;;;;;3.15;1.30;;;10.00;99.90;;;;;;5109554;27;20067;-71
2023/12/17 03:06:38;;;;;;;1.67;0.70;;;10.00;99.90;;;;;;5089500;27;20513;-71
2023/12/17 03:09:04;;;;;;;2.20;1.35;;;10.00;99.90;;;;;;5091443;27;20031;-71
2023/12/17 03:11:30;;;;;;;4.03;1.13;;;10.00;99.90;;;;;;5095540;27;20863;-71
2023/12/17 03:13:56;;;;;;;3.05;1.00;;;10.00;99.90;;;;;;5116273;27;20066;-71
2023/12/17 03:16:23;;;;;;;3.88;0.93;;;10.00;99.90;;;;;;5132965;27;20058;-71
2023/12/17 03:18:48;;;;;;;4.57;1.38;;;10.00;99.90;;;;;;5114786;27;20040;-71
2023/12/17 03:21:14;;;;;;;1.85;1.02;;;10.10;99.90;;;;;;5090929;27;20161;-71
2023/12/17 03:23:40;;;;;;;5.60;1.48;;;10.00;99.90;;;;;;5124968;27;20496;-71
2023/12/17 03:26:06;;;;;;;4.13;1.45;;;10.00;99.90;;;;;;5110347;27;20035;-71
2023/12/17 03:28:32;;;;;;;4.05;1.33;;;10.00;99.90;;;;;;5148239;27;20046;-71
2023/12/17 03:30:58;;;;;;;2.42;1.02;;;10.00;99.90;;;;;;5121593;27;20419;-71
2023/12/17 03:33:24;;;;;;;2.85;1.15;;;10.00;99.90;;;;;;5153547;27;20046;-71
2023/12/17 03:35:49;;;;;;;3.63;0.95;;;10.00;99.90;;;;;;5111645;27;20434;-71
2023/12/17 03:38:15;;;;;;;2.53;1.10;;;10.00;99.90;;;;;;5113322;27;20536;-72
2023/12/17 03:40:40;;;;;;;2.17;0.90;;;10.00;99.90;;;;;;5094973;27;20079;-71
2023/12/17 03:43:07;;;;;;;2.15;1.20;;;10.00;99.90;;;;;;5115625;27;20027;-71
2023/12/17 03:45:33;;;;;;;4.90;1.20;;;10.00;99.90;;;;;;5101800;27;22271;-71
2023/12/17 03:47:59;;;;;;;3.90;1.42;;;10.00;99.90;;;;;;5119435;27;20099;-71
2023/12/17 03:50:26;;;;;;;3.28;1.02;;;10.00;99.90;;;;;;5112232;27;20087;-71
2023/12/17 03:52:52;;;;;;;3.00;1.30;;;10.00;99.90;;;;;;5111909;27;20028;-71
2023/12/17 03:55:17;;;;;;;3.67;1.20;;;10.00;99.90;;;;;;5112641;27;20078;-71
2023/12/17 03:57:45;;;;;;;3.92;1.23;;;10.00;99.90;;;;;;5121455;27;20076;-71
2023/12/17 04:00:11;;;;;;;2.47;1.10;;;10.00;99.90;;;;;;5118476;27;20517;-71
2023/12/17 04:02:37;;;;;;;3.80;1.00;;;10.00;99.90;;;;;;5121766;27;20031;-71
2023/12/17 04:05:03;;;;;;;2.33;1.30;;;10.00;99.90;;;;;;5149988;27;20053;-71
2023/12/17 04:07:30;;;;;;;4.50;1.23;;;10.00;99.90;;;;;;5137769;27;20030;-71
2023/12/17 04:10:03;;;;;;;4.63;1.27;;;10.00;99.90;;;;;;5113166;27;20035;-72
2023/12/17 04:12:29;;;;;;;3.60;1.08;;;9.90;99.90;;;;;;5117930;27;20035;-71
2023/12/17 04:14:55;;;;;;;4.80;1.83;;;10.00;99.90;;;;;;5098673;27;20483;-71
2023/12/17 04:17:20;;;;;;;3.33;1.10;;;9.90;99.90;;;;;;5117128;27;20077;-71
2023/12/17 04:19:46;;;;;;;3.40;1.60;;;9.90;99.90;;;;;;5151534;27;20035;-71
2023/12/17 04:22:12;;;;;;;3.00;1.58;;;9.90;99.90;;;;;;5117708;27;20130;-71
2023/12/17 04:24:38;;;;;;;4.30;1.73;;;9.90;99.90;;;;;;5137478;27;20147;-71
2023/12/17 04:27:04;;;;;;;2.65;0.98;;;9.90;99.90;;;;;;5119399;27;20039;-71
2023/12/17 04:29:30;;;;;;;4.68;1.20;;;9.90;99.90;;;;;;5125482;27;20034;-71
2023/12/17 04:31:55;;;;;;;3.10;1.40;;;9.90;99.90;;;;;;5122050;27;20046;-71
2023/12/17 04:34:21;;;;;;;2.13;1.02;;;9.90;99.90;;;;;;5140457;27;20462;-72
2023/12/17 04:36:47;;;;;;;3.05;1.58;;;9.80;99.90;;;;;;5151883;27;20043;-71
2023/12/17 04:39:13;;;;;;;4.35;1.52;;;9.90;99.90;;;;;;5149667;27;20047;-71
2023/12/17 04:41:39;;;;;;;2.80;1.40;;;9.90;99.90;;;;;;5120638;27;20117;-72
2023/12/17 04:44:06;;;;;;;2.80;1.15;;;9.90;99.90;;;;;;5095210;27;20059;-71
2023/12/17 04:46:32;;;;;;;2.22;1.42;;;9.90;99.90;;;;;;5138174;27;20031;-71
2023/12/17 04:48:58;;;;;;;6.20;1.70;;;9.90;99.90;;;;;;5106601;27;20396;-72
2023/12/17 04:51:25;;;;;;;3.97;1.65;;;9.90;99.90;;;;;;5136354;27;20054;-71
2023/12/17 04:53:51;;;;;;;3.63;1.75;;;9.90;99.90;;;;;;5116015;27;20129;-71
2023/12/17 04:56:17;;;;;;;3.10;1.52;;;9.90;99.90;;;;;;5153226;27;20114;-71
2023/12/17 04:58:43;;;;;;;3.08;1.70;;;9.90;99.90;;;;;;5124992;27;20132;-71
2023/12/17 05:01:09;;;;;;;2.50;1.38;;;9.90;99.90;;;;;;5116097;27;20600;-71
2023/12/17 05:03:36;;;;;;;3.75;1.92;;;9.90;99.90;;;;;;5114961;27;20141;-71
2023/12/17 05:06:02;;;;;;;5.38;1.40;;;9.90;99.90;;;;;;5108999;27;20115;-71
2023/12/17 05:08:28;;;;;;;1.83;0.98;;;9.90;99.90;;;;;;5099597;27;20511;-71
2023/12/17 05:10:54;;;;;;;3.28;1.13;;;9.90;99.90;;;;;;5106367;27;20030;-71
2023/12/17 05:13:19;;;;;;;3.70;1.27;;;9.80;99.90;;;;;;5153295;27;20051;-71
2023/12/17 05:15:45;;;;;;;2.72;1.30;;;9.90;99.90;;;;;;5114233;27;20577;-71
2023/12/17 05:18:11;;;;;;;1.73;0.85;;;9.80;99.90;;;;;;5095243;27;20051;-71
2023/12/17 05:20:37;;;;;;;1.95;1.05;;;9.80;99.90;;;;;;5109797;27;20038;-71
2023/12/17 05:23:03;;;;;;;2.42;0.95;;;9.90;99.90;;;;;;5129057;27;20039;-71
2023/12/17 05:25:28;;;;;;;2.53;1.30;;;9.80;99.90;;;;;;5143652;27;20053;-71
2023/12/17 05:27:54;;;;;;;2.42;1.38;;;9.90;99.90;;;;;;5105966;27;20137;-71
2023/12/17 05:30:19;;;;;;;2.63;0.93;;;9.90;99.90;;;;;;5137534;27;20031;-71
2023/12/17 05:32:45;;;;;;;2.20;1.10;;;9.90;99.90;;;;;;5114800;27;20035;-71
2023/12/17 05:35:11;;;;;;;2.08;1.08;;;9.80;99.90;;;;;;5148635;27;20176;-71
2023/12/17 05:37:36;;;;;;;2.97;1.20;;;9.90;99.90;;;;;;5117625;27;20050;-71
2023/12/17 05:40:02;;;;;;;3.90;1.20;;;9.80;99.90;;;;;;5095014;27;20027;-71
2023/12/17 05:42:28;;;;;;;3.33;1.58;;;9.80;99.90;;;;;;5113699;27;20073;-71
2023/12/17 05:44:53;;;;;;;4.60;1.55;;;9.80;99.90;;;;;;5116768;27;20035;-71
2023/12/17 05:47:19;;;;;;;2.08;1.15;;;9.90;99.90;;;;;;5138983;27;20049;-72
2023/12/17 05:49:45;;;;;;;2.17;1.40;;;9.80;99.90;;;;;;5149191;27;20608;-71
2023/12/17 05:52:11;;;;;;;2.22;1.20;;;9.80;99.90;;;;;;5115322;27;20046;-71
2023/12/17 05:54:38;;;;;;;1.85;1.10;;;9.80;99.90;;;;;;5141067;27;20502;-71
2023/12/17 05:57:04;;;;;;;6.30;1.50;;;9.80;99.90;;;;;;5121500;27;20106;-71
2023/12/17 05:59:30;;;;;;;3.05;1.08;;;9.80;99.90;;;;;;5100129;27;20737;-71
2023/12/17 06:01:55;;;;;;;1.80;1.00;;;9.80;99.90;;;;;;5136645;27;20167;-71
2023/12/17 06:04:21;;;;;;;3.15;1.40;;;9.70;99.90;;;;;;5149064;27;20038;-71
2023/12/17 06:06:47;;;;;;;2.22;1.08;;;9.70;99.90;;;;;;5120198;27;20088;-71
2023/12/17 06:09:13;;;;;;;1.98;0.85;;;9.70;99.90;;;;;;5133628;27;20163;-71
2023/12/17 06:11:39;;;;;;;2.25;1.42;;;9.70;99.90;;;;;;5112452;27;20488;-71
2023/12/17 06:14:04;;;;;;;2.63;1.20;;;9.80;99.90;;;;;;5117097;27;20034;-71
2023/12/17 06:16:30;;;;;;;8.95;1.70;;;9.70;99.90;;;;;;5139432;27;20031;-72
2023/12/17 06:18:56;;;;;;;5.43;1.42;;;9.70;99.90;;;;;;5136959;27;20417;-71
2023/12/17 06:21:23;;;;;;;3.33;1.35;;;9.70;99.90;;;;;;5113561;27;20034;-71
2023/12/17 06:23:50;;;;;;;3.22;1.35;;;9.70;99.90;;;;;;5110473;27;20041;-71
2023/12/17 06:26:19;;;;;;;3.22;0.93;;;9.70;99.90;;;;;;5137320;27;20053;-71
2023/12/17 06:28:45;;;;;;;2.08;1.25;;;9.70;99.90;;;;;;5120483;27;20487;-71
2023/12/17 06:31:11;;;;;;;1.95;1.02;;;9.70;99.90;;;;;;5116581;27;20392;-71
2023/12/17 06:33:37;;;;;;;3.97;1.55;;;9.60;99.90;;;;;;5118056;27;20039;-71
2023/12/17 06:36:03;;;;;;;2.85;0.90;;;9.70;99.90;;;;;;5146588;27;21009;-71
2023/12/17 06:38:29;;;;;;;2.65;1.10;;;9.60;99.90;;;;;;5154878;27;20062;-71
2023/12/17 06:40:55;;;;;;;5.32;1.05;;;9.60;99.90;;;;;;5090991;27;20065;-71
2023/12/17 06:43:21;;;;;;;3.70;1.10;;;9.70;99.90;;;;;;5128644;27;20115;-71
2023/12/17 06:45:46;;;;;;;2.83;0.90;;;9.60;99.90;;;;;;5114353;27;20196;-71
2023/12/17 06:48:12;;;;;;;2.78;1.13;;;9.60;99.90;;;;;;5132146;27;20532;-71
2023/12/17 06:50:38;;;;;;;1.98;1.00;;;9.60;99.90;;;;;;5126052;27;20031;-71
2023/12/17 06:53:03;;;;;;;4.60;1.30;;;9.60;99.90;;;;;;5119200;27;20031;-71
2023/12/17 06:55:29;;;;;;;3.53;1.17;;;9.60;99.90;;;;;;5132432;27;20668;-71
2023/12/17 06:57:57;;;;;;;2.22;0.80;;;9.60;99.90;;;;;;5130332;27;20027;-72
2023/12/17 07:00:23;;;;;;;1.83;1.08;;;9.60;99.90;;;;;;5115583;27;20030;-71
2023/12/17 07:02:49;;;;;;;2.17;1.10;;;9.60;99.90;;;;;;5096103;27;20038;-71
2023/12/17 07:05:15;;;;;;;1.08;0.70;;;9.60;99.90;;;;;;5144876;27;20039;-72
2023/12/17 07:07:43;;;;;;;5.28;1.10;;;9.60;99.90;;;;;;5113916;27;20051;-71
2023/12/17 07:10:11;;;;;;;2.47;1.02;;;9.60;99.90;;;;;;5103123;27;20099;-71
2023/12/17 07:12:37;;;;;;;2.50;0.95;;;9.60;99.90;;;;;;5097712;27;20039;-72
2023/12/17 07:15:03;;;;;;;1.73;1.10;;;9.60;99.90;;;;;;5106988;27;20047;-71
2023/12/17 07:17:30;;;;;;;2.47;1.00;;;9.60;99.90;;;;;;5107034;27;20071;-71
2023/12/17 07:19:55;;;;;;;3.28;1.08;;;9.60;99.90;;;;;;5109150;27;20058;-71
2023/12/17 07:22:22;;;;;;;3.90;1.35;;;9.60;99.90;;;;;;5115342;27;20110;-71
2023/12/17 07:24:49;;;;;;;1.45;0.73;;;9.60;99.90;;;;;;5105948;27;20500;-71
2023/12/17 07:27:15;;;;;;;3.63;1.15;;;9.50;99.90;;;;;;5103723;27;20039;-71
2023/12/17 07:29:40;;;;;;;2.50;1.17;;;9.60;99.90;;;;;;5129342;27;20092;-71
2023/12/17 07:32:06;;;;;;;4.97;1.65;;;9.60;99.90;;;;;;5113899;27;20038;-71
2023/12/17 07:34:32;;;;;;;2.58;1.15;;;9.60;99.90;;;;;;5124131;27;20041;-72
2023/12/17 07:37:00;;;;;;;4.13;1.25;;;9.50;99.90;;;;;;5117180;27;20035;-71
2023/12/17 07:39:26;;;;;;;1.77;0.93;;;9.50;99.90;;;;;;5110438;27;20063;-71
2023/12/17 07:41:51;;;;;;;6.05;1.73;;;9.60;99.90;;;;;;5114770;27;20070;-71
2023/12/17 07:44:17;;;;;;;2.60;1.33;;;9.60;99.90;;;;;;5136008;27;20365;-71
2023/12/17 07:46:43;;;;;;;5.55;2.35;;;9.50;99.90;;;;;;5111592;27;20613;-71
2023/12/17 07:49:08;;;;;;;5.13;1.83;;;9.50;99.90;;;;;;5147749;27;20033;-71
2023/12/17 07:51:35;;;;;;;3.95;2.92;;;9.50;99.90;;;;;;5144589;27;20064;-71
2023/12/17 07:54:01;;;;;;;3.03;1.67;;;9.50;99.90;;;;;;5148741;27;20070;-71
2023/12/17 07:56:27;;;;;;;3.45;1.83;;;9.50;99.90;;;;;;5117370;27;20046;-71
2023/12/17 07:58:53;;;;;;;6.85;2.67;;;9.50;99.90;;;;;;5148387;27;20075;-71
2023/12/17 08:01:27;;;;;;;12.05;6.03;;;9.50;99.90;;;;;;5116206;27;20472;-71
2023/12/17 08:03:53;;;;;;;9.05;4.72;;;9.50;99.90;;;;;;5091678;27;20035;-71
2023/12/17 08:06:18;;;;;;;6.63;3.20;;;9.50;99.90;;;;;;5120505;27;20034;-71
2023/12/17 08:08:44;;;;;;;9.80;5.38;;;9.50;99.90;;;;;;5129729;27;20027;-71
2023/12/17 08:11:12;;;;;;;3.47;1.92;;;9.50;99.90;;;;;;5142448;27;20484;-71
2023/12/17 08:13:38;;;;;;;3.10;1.60;;;9.50;99.90;;;;;;5107636;27;20039;-72
2023/12/17 08:16:04;;;;;;;7.55;2.17;;;9.50;99.90;;;;;;5135986;27;20443;-71
2023/12/17 08:18:30;;;;;;;19.38;3.22;;;9.50;99.90;;;;;;5108340;27;20502;-71
2023/12/17 08:20:57;;;;;;;7.57;2.85;;;9.50;99.90;;;;;;5115246;27;20039;-71
2023/12/17 08:23:23;;;;;;;7.55;3.50;;;9.50;99.90;;;;;;5109346;27;20043;-72
2023/12/17 08:25:49;;;;;;;6.05;2.08;;;9.50;99.90;;;;;;5118282;27;20050;-71
2023/12/17 08:28:16;;;;;;;3.03;1.58;;;9.50;99.90;;;;;;5144236;27;20046;-71
2023/12/17 08:30:42;;;;;;;4.00;2.03;;;9.50;99.90;;;;;;5100664;27;20399;-71
2023/12/17 08:33:07;;;;;;;2.78;1.67;;;9.40;99.90;;;;;;5104188;27;20043;-71
2023/12/17 08:35:36;;;;;;;4.32;2.13;;;9.50;99.90;;;;;;5111574;27;20043;-71
2023/12/17 08:38:03;;;;;;;8.75;2.55;;;9.50;99.90;;;;;;5093822;27;20471;-71
2023/12/17 08:40:30;;;;;;;2.13;1.80;;;9.50;99.90;;;;;;5110799;27;20079;-71
2023/12/17 08:42:56;;;;;;;4.20;1.60;;;9.50;99.90;;;;;;5129920;27;20146;-71
2023/12/17 08:45:21;;;;;;;3.35;2.33;;;9.40;99.90;;;;;;5143553;27;20034;-71
2023/12/17 08:47:47;;;;;;;5.53;2.25;;;9.50;99.90;;;;;;5116966;27;20035;-71
2023/12/17 08:50:13;;;;;;;4.45;2.20;;;9.50;99.90;;;;;;5144141;27;20518;-71
2023/12/17 08:52:39;;;;;;;12.95;2.03;;;9.40;99.90;;;;;;5108510;27;20047;-72
2023/12/17 08:55:06;;;;;;;4.20;1.98;;;9.40;99.90;;;;;;5094048;27;20045;-71
2023/12/17 08:57:31;;;;;;;5.80;1.92;;;9.50;99.90;;;;;;5128625;27;20035;-71
2023/12/17 08:59:57;;;;;;;8.75;2.30;;;9.50;99.90;;;;;;5135660;27;20472;-71
2023/12/17 09:02:23;;;;;;;3.50;2.38;;;9.50;99.90;;;;;;5134706;27;20115;-71
2023/12/17 09:04:51;;;;;;;3.22;1.80;;;9.50;99.90;;;;;;5119196;27;20031;-71
2023/12/17 09:07:17;;;;;;;3.50;2.17;;;9.50;99.90;;;;;;5129731;27;20070;-71
2023/12/17 09:09:43;;;;;;;5.53;2.67;;;9.50;99.90;;;;;;5111996;27;21718;-71
2023/12/17 09:12:09;;;;;;;3.58;1.63;;;9.50;99.90;;;;;;5146738;27;20401;-71
2023/12/17 09:14:35;;;;;;;6.10;3.28;;;9.60;99.90;;;;;;5146315;27;20475;-71
2023/12/17 09:17:01;;;;;;;6.72;2.80;;;9.50;99.90;;;;;;5104590;27;20047;-71
2023/12/17 09:19:27;;;;;;;6.20;1.98;;;9.60;99.90;;;;;;5126485;27;20080;-71
2023/12/17 09:21:53;;;;;;;10.07;3.13;;;9.60;99.90;;;;;;5098179;27;20072;-71
2023/12/17 09:24:19;;;;;;;4.20;1.80;;;9.60;99.90;;;;;;5134547;27;20514;-71
2023/12/17 09:26:45;;;;;;;3.53;1.42;;;9.60;99.90;;;;;;5109367;27;20054;-73
2023/12/17 09:29:10;;;;;;;8.68;2.95;;;9.70;99.90;;;;;;5127750;27;20035;-72
2023/12/17 09:31:36;;;;;;;10.68;2.65;;;9.60;99.90;;;;;;5105620;27;20073;-71
2023/12/17 09:34:02;;;;;;;6.70;2.67;;;9.60;99.90;;;;;;5126246;27;20035;-71
2023/12/17 09:36:28;;;;;;;6.50;2.75;;;9.70;99.90;;;;;;5088425;27;20046;-71
2023/12/17 09:38:53;;;;;;;5.32;2.40;;;9.70;99.90;;;;;;5118073;27;20594;-71
2023/12/17 09:41:19;;;;;;;6.78;2.13;;;9.60;99.90;;;;;;5098175;27;20038;-71
2023/12/17 09:43:46;;;;;;;5.38;2.45;;;9.60;99.90;;;;;;5117696;27;20067;-71
2023/12/17 09:46:12;;;;;;;5.50;2.25;;;9.60;99.90;;;;;;5130351;27;20091;-71
2023/12/17 09:48:37;;;;;;;5.85;2.55;;;9.60;99.90;;;;;;5124614;27;20042;-71
2023/12/17 09:51:03;;;;;;;6.43;2.22;;;9.70;99.90;;;;;;5097457;27;20502;-71
2023/12/17 09:53:33;;;;;;;7.82;2.40;;;9.70;99.90;;;;;;5147724;27;20439;-71
2023/12/17 09:55:59;;;;;;;6.82;2.15;;;9.60;99.90;;;;;;5114800;27;20518;-71
2023/12/17 09:58:26;;;;;;;6.82;2.83;;;9.70;99.90;;;;;;5114974;27;20035;-75
2023/12/17 10:00:52;;;;;;;5.60;2.33;;;9.70;99.90;;;;;;5124768;27;20031;-71
2023/12/17 10:03:19;;;;;;;5.85;2.92;;;9.70;99.90;;;;;;5114028;27;20034;-71
2023/12/17 10:05:54;;;;;;;6.22;3.00;;;9.80;99.90;;;;;;5107480;27;20342;-71
2023/12/17 10:08:20;;;;;;;5.97;3.33;;;9.70;99.90;;;;;;5117399;27;20077;-71
2023/12/17 10:10:46;;;;;;;9.70;5.45;;;9.70;99.90;;;;;;5127761;27;20118;-71
2023/12/17 10:13:18;;;;;;;8.55;2.92;;;9.60;99.90;;;;;;5146903;27;20491;-71
2023/12/17 10:15:54;;;;;;;10.73;3.40;;;9.60;99.90;;;;;;5110197;27;20031;-72
2023/12/17 10:18:20;;;;;;;7.05;3.03;;;9.60;99.90;;;;;;5109529;27;20035;-72
2023/12/17 10:20:46;;;;;;;7.78;2.80;;;9.60;99.90;;;;;;5098559;27;20112;-72
2023/12/17 10:23:13;;;;;;;6.28;2.65;;;9.60;99.90;;;;;;5099359;27;20034;-71
2023/12/17 10:25:43;;;;;;;9.07;3.22;;;9.60;99.90;;;;;;5114169;27;20050;-72
2023/12/17 10:28:10;;;;;;;6.45;2.92;;;9.70;99.90;;;;;;5118639;27;20039;-71
2023/12/17 10:30:37;;;;;;;10.05;3.67;;;9.60;99.90;;;;;;5121208;27;20118;-71
2023/12/17 10:33:05;;;;;;;9.45;4.07;;;9.60;99.90;;;;;;5112649;27;20366;-71
2023/12/17 10:35:31;;;;;;;8.73;3.22;;;9.50;99.90;;;;;;5084888;27;20042;-71
2023/12/17 10:38:02;;;;;;;10.05;2.80;;;9.60;99.90;;;;;;5089051;27;20036;-72
2023/12/17 10:40:29;;;;;;;8.02;2.58;;;9.60;99.90;;;;;;5142000;27;20257;-72
2023/12/17 10:42:56;;;;;;;7.80;2.85;;;9.60;99.90;;;;;;5094702;27;20403;-72
2023/12/17 10:45:23;;;;;;;6.53;3.80;;;9.60;99.90;;;;;;5096247;27;20539;-72
2023/12/17 10:47:53;;;;;;;7.32;2.90;;;9.70;99.90;;;;;;5114465;27;20037;-72
2023/12/17 10:50:20;;;;;;;11.50;3.20;;;9.70;99.90;;;;;;5107530;27;20099;-72
2023/12/17 10:52:49;;;;;;;8.68;3.83;;;9.60;99.90;;;;;;5101041;27;20081;-73
2023/12/17 10:55:16;;;;;;;7.18;2.70;;;9.70;99.90;;;;;;5099721;27;20038;-72
2023/12/17 10:57:55;;;;;;;7.53;2.92;;;9.70;99.90;;;;;;5112286;27;20516;-72
2023/12/17 11:00:25;;;;;;;6.00;2.47;;;9.70;99.90;;;;;;5126721;27;20110;-71
2023/12/17 11:02:52;;;;;;;6.82;2.70;;;9.70;99.90;;;;;;5099465;27;20039;-72
2023/12/17 11:05:18;;;;;;;5.25;1.98;;;9.70;99.90;;;;;;5113310;27;20089;-72
2023/12/17 11:07:44;;;;;;;5.25;2.30;;;9.70;99.90;;;;;;5118391;27;20499;-72
2023/12/17 11:10:15;;;;;;;4.03;1.90;;;9.70;99.90;;;;;;5109626;27;20030;-71
2023/12/17 11:12:45;;;;;;;7.88;2.88;;;9.70;99.90;;;;;;5114749;27;20069;-72
2023/12/17 11:15:12;;;;;;;5.65;3.13;;;9.70;99.90;;;;;;5114436;27;20111;-72
2023/12/17 11:17:39;;;;;;;5.00;2.83;;;9.70;99.90;;;;;;5117229;27;20480;-72
2023/12/17 11:20:05;;;;;;;4.88;2.55;;;9.70;99.90;;;;;;5095834;27;20065;-71
2023/12/17 11:22:36;;;;;;;6.53;2.58;;;9.70;99.90;;;;;;5119655;27;20514;-71
2023/12/17 11:25:03;;;;;;;4.53;2.72;;;9.70;99.90;;;;;;5116745;27;20381;-71
2023/12/17 11:27:31;;;;;;;4.32;1.80;;;9.70;99.90;;;;;;5106881;27;20146;-72
2023/12/17 11:29:56;;;;;;;6.00;2.92;;;9.70;99.90;;;;;;5108281;27;20515;-72
2023/12/17 11:32:27;;;;;;;3.97;1.55;;;9.70;99.90;;;;;;5134947;27;20152;-72
2023/12/17 11:34:54;;;;;;;4.30;1.70;;;9.70;99.90;;;;;;5102773;28;20062;-72
2023/12/17 11:37:21;;;;;;;4.93;2.10;;;9.70;99.90;;;;;;5136827;27;20043;-72
2023/12/17 11:39:49;;;;;;;6.10;2.50;;;9.70;99.90;;;;;;5122417;27;20507;-72
2023/12/17 11:42:16;;;;;;;6.38;2.65;;;9.70;99.90;;;;;;5105578;27;20334;-72
2023/12/17 11:44:47;;;;;;;7.43;2.50;;;9.70;99.90;;;;;;5098303;27;20110;-72
2023/12/17 11:47:13;;;;;;;5.82;2.50;;;9.70;99.90;;;;;;5116576;27;20131;-72
2023/12/17 11:49:39;;;;;;;5.88;2.85;;;9.70;99.90;;;;;;5106159;27;20441;-72
2023/12/17 11:52:18;;;;;;;4.78;1.80;;;9.60;99.90;;;;;;5090672;27;20038;-72
2023/12/17 11:54:44;;;;;;;6.18;2.65;;;9.60;99.90;;;;;;5117318;27;20042;-72
2023/12/17 11:57:23;;;;;;;4.60;2.15;;;9.70;99.90;;;;;;5127738;27;20038;-72
2023/12/17 11:59:52;;;;;;;6.95;2.38;;;9.70;99.90;;;;;;5095642;27;20043;-72
2023/12/17 12:02:20;;;;;;;7.45;2.22;;;9.70;99.90;;;;;;5091309;27;20071;-72
2023/12/17 12:04:46;;;;;;;5.63;1.85;;;9.70;99.90;;;;;;5116251;27;20039;-72
2023/12/17 12:07:20;;;;;;;6.50;2.72;;;9.60;99.90;;;;;;5103556;27;20043;-72
2023/12/17 12:09:47;;;;;;;9.13;3.03;;;9.70;99.90;;;;;;5126150;27;20268;-72
2023/12/17 12:12:19;;;;;;;9.63;2.97;;;9.70;99.90;;;;;;5104827;27;20035;-72
2023/12/17 12:14:48;;;;;;;7.80;2.90;;;9.60;99.90;;;;;;5144357;27;20130;-72
2023/12/17 12:17:38;;;;;;;8.68;3.13;;;9.70;99.90;;;;;;5114370;27;20038;-72
2023/12/17 12:20:08;;;;;;;18.23;6.55;;;9.60;99.90;;;;;;5096846;27;20498;-72
2023/12/17 12:22:35;;;;;;;7.95;3.25;;;9.60;99.90;;;;;;5114275;27;20054;-72
2023/12/17 12:25:02;;;;;;;10.13;3.97;;;9.60;99.90;;;;;;5095099;27;20377;-72
2023/12/17 12:27:28;;;;;;;10.25;3.42;;;9.60;99.90;;;;;;5117858;27;20060;-72
2023/12/17 12:29:55;;;;;;;10.23;4.40;;;9.60;99.90;;;;;;5126942;27;20570;-72
2023/12/17 12:32:31;;;;;;;9.95;3.80;;;9.60;99.90;;;;;;5115449;27;20464;-74
2023/12/17 12:35:00;;;;;;;9.15;3.13;;;9.50;99.90;;;;;;5091670;27;20043;-73
2023/12/17 12:37:38;;;;;;;11.77;3.63;;;9.50;99.90;;;;;;5110319;27;20181;-72
2023/12/17 12:40:06;;;;;;;7.05;3.25;;;9.50;99.90;;;;;;5132444;27;20112;-72
2023/12/17 12:42:33;;;;;;;7.28;3.70;;;9.50;99.90;;;;;;5119753;27;20035;-73
2023/12/17 12:44:59;;;;;;;6.35;2.60;;;9.50;99.90;;;;;;5125025;27;20455;-72
2023/12/17 12:47:25;;;;;;;6.20;3.00;;;9.50;99.90;;;;;;5110398;27;20035;-71
2023/12/17 12:49:51;;;;;;;9.52;3.50;;;9.40;99.90;;;;;;5108089;27;20427;-71
2023/12/17 12:52:20;;;;;;;9.82;3.70;;;9.40;99.90;;;;;;5122190;27;20043;-72